Venus Seven — H9RN — position and weather

sailwx.info

Track history (hours):
 
Tides and Currents Weather Stations Pressure Air Temp Water Temp Dewpoint Dewpoint Depression Visibility Wind Speed Wind Dir Waves Ship Positions

Venus Seven

Last reported at 2014-Jul-24 03:30 UTC. Time now 2014-Jul-24 04:28 UTC.
Position N 34°38' E 135°25'.

Length 93 m; draft 5.2 m.

Type: Cargo ship. MMSI: 353405000.

Date/timePositionNaut miles runAvg speedWind from/ knotsBaromVisibWave heightAir tempDewpointWater temp
2014-Jul-24 03:30N 34°38' E 135°25'0 0.0
2014-Jul-24 02:24N 34°38' E 135°25'0 0.0
2014-Jul-24 01:30N 34°38' E 135°25'0 0.0
2014-Jul-24 00:30N 34°38' E 135°25'0 0.0
2014-Jul-23 23:30N 34°38' E 135°25'0 0.0
2014-Jul-23 22:30N 34°38' E 135°25'0 0.0
2014-Jul-23 21:24N 34°38' E 135°25'0 0.0
2014-Jul-23 20:30N 34°38' E 135°25'0 0.0
2014-Jul-23 19:30N 34°38' E 135°25'0 0.0
2014-Jul-23 18:30N 34°38' E 135°25'0 0.0
2014-Jul-23 17:30N 34°38' E 135°25'0 0.0
2014-Jul-23 16:30N 34°38' E 135°25'0 0.0
2014-Jul-23 15:30N 34°38' E 135°25'0 0.0
2014-Jul-23 14:18N 34°38' E 135°25'0 0.0
2014-Jul-23 13:30N 34°38' E 135°25'0 0.0
2014-Jul-23 12:30N 34°38' E 135°25'0 0.0
2014-Jul-23 11:30N 34°38' E 135°25'0 0.0
2014-Jul-23 10:30N 34°38' E 135°25'0 0.0
2014-Jul-23 09:12N 34°38' E 135°25'0 0.0
2014-Jul-23 08:12N 34°38' E 135°25'0 0.0
2014-Jul-23 07:30N 34°38' E 135°25'0 0.0
2014-Jul-23 06:30N 34°38' E 135°25'0 0.0
2014-Jul-23 05:30N 34°38' E 135°25'0 0.0
2014-Jul-23 04:29N 34°38' E 135°25'0 0.0
2014-Jul-23 03:17N 34°38' E 135°25'0 0.0
2014-Jul-23 02:29N 34°38' E 135°25'0 0.0
2014-Jul-23 01:05N 34°38' E 135°25'0 0.0
2014-Jul-23 00:29N 34°38' E 135°25'0 0.0
2014-Jul-22 23:23N 34°38' E 135°25'0 0.0
2014-Jul-22 22:29N 34°38' E 135°25'2 2.2
2014-Jul-22 21:33N 34°37' E 135°23'0 0.1
2014-Jul-22 20:31N 34°37' E 135°23'0 0.0
2014-Jul-22 19:25N 34°37' E 135°23'0 0.0
2014-Jul-22 18:31N 34°37' E 135°23'0 0.0
2014-Jul-22 17:25N 34°37' E 135°23'0 0.0
2014-Jul-22 16:31N 34°37' E 135°23'0 0.0
2014-Jul-22 15:31N 34°37' E 135°23'0 0.0
2014-Jul-22 14:31N 34°37' E 135°23'8 8.2
2014-Jul-22 13:33N 34°35' E 135°13'1313.4
2014-Jul-22 12:33N 34°36' E 134°57'  
2014-Jul-16 15:30N 24°01' E 120°12'7912.8
2014-Jul-16 09:20N 22°43' E 120°08'12 1.1
2014-Jul-15 22:33N 22°35' E 120°18'2 2.1
2014-Jul-15 21:30N 22°37' E 120°17'0 0.0
2014-Jul-15 20:30N 22°37' E 120°17'0 0.0
2014-Jul-15 19:30N 22°37' E 120°17'0 0.0
2014-Jul-15 18:30N 22°37' E 120°17'0 0.0
2014-Jul-15 17:30N 22°37' E 120°17'0 0.0
2014-Jul-15 16:30N 22°37' E 120°17'0 0.0
2014-Jul-15 15:30N 22°37' E 120°17'0 0.0
2014-Jul-15 14:30N 22°37' E 120°17'0 0.0
2014-Jul-15 13:30N 22°37' E 120°17'0 0.0
2014-Jul-15 12:30N 22°37' E 120°17'0 0.0
2014-Jul-15 11:30N 22°37' E 120°17'0 0.0
2014-Jul-15 10:30N 22°37' E 120°17'0 0.0
2014-Jul-15 09:30N 22°37' E 120°17'0 0.0
2014-Jul-15 08:29N 22°37' E 120°17'0 0.0
2014-Jul-15 07:29N 22°37' E 120°17'0 0.0
2014-Jul-15 06:29N 22°37' E 120°17'0 0.0
2014-Jul-15 05:29N 22°37' E 120°17'0 0.0
2014-Jul-15 04:29N 22°37' E 120°17'0 0.0
2014-Jul-15 03:29N 22°37' E 120°17'0 0.0
2014-Jul-15 02:29N 22°37' E 120°17'0 0.0
2014-Jul-15 01:29N 22°37' E 120°17'0 0.0
2014-Jul-15 00:29N 22°37' E 120°17'0 0.0
2014-Jul-14 23:29N 22°37' E 120°17'0 0.0
2014-Jul-14 22:29N 22°37' E 120°17'0 0.0
2014-Jul-14 21:29N 22°37' E 120°17'0 0.0
2014-Jul-14 20:29N 22°37' E 120°17'0 0.0
2014-Jul-14 19:23N 22°37' E 120°17'0 0.0
2014-Jul-14 18:29N 22°37' E 120°17'0 0.0
2014-Jul-14 17:29N 22°37' E 120°17'0 0.0
2014-Jul-14 16:29N 22°37' E 120°17'0 0.0
2014-Jul-14 15:29N 22°37' E 120°17'0 0.0
2014-Jul-14 14:29N 22°37' E 120°17'0 0.0
2014-Jul-14 13:29N 22°37' E 120°17'0 0.0
2014-Jul-14 12:29N 22°37' E 120°17'0 0.0
2014-Jul-14 11:29N 22°37' E 120°17'0 0.0
2014-Jul-14 10:17N 22°37' E 120°17'0 0.0
2014-Jul-14 09:29N 22°37' E 120°17'0 0.0
2014-Jul-14 08:29N 22°37' E 120°17'0 0.0
2014-Jul-14 07:29N 22°37' E 120°17'0 0.0
2014-Jul-14 06:29N 22°37' E 120°17'3 3.2
2014-Jul-14 05:33N 22°37' E 120°14'9 9.4
2014-Jul-14 04:33N 22°44' E 120°07'  
Track history (hours):
 
Tides and Currents Weather Stations Pressure Air Temp Water Temp Dewpoint Dewpoint Depression Visibility Wind Speed Wind Dir Waves Ship Positions

Venus Seven

Last reported at 2014-Jul-24 03:30 UTC. Time now 2014-Jul-24 04:28 UTC.
Position N 34°38' E 135°25'.

Length 93 m; draft 5.2 m.

Type: Cargo ship. MMSI: 353405000.

Date/timePositionNaut miles runAvg speedWind from/ knotsBaromVisibWave heightAir tempDewpointWater temp
2014-Jul-24 03:30N 34°38' E 135°25'0 0.0
2014-Jul-24 02:24N 34°38' E 135°25'0 0.0
2014-Jul-24 01:30N 34°38' E 135°25'0 0.0
2014-Jul-24 00:30N 34°38' E 135°25'0 0.0
2014-Jul-23 23:30N 34°38' E 135°25'0 0.0
2014-Jul-23 22:30N 34°38' E 135°25'0 0.0
2014-Jul-23 21:24N 34°38' E 135°25'0 0.0
2014-Jul-23 20:30N 34°38' E 135°25'0 0.0
2014-Jul-23 19:30N 34°38' E 135°25'0 0.0
2014-Jul-23 18:30N 34°38' E 135°25'0 0.0
2014-Jul-23 17:30N 34°38' E 135°25'0 0.0
2014-Jul-23 16:30N 34°38' E 135°25'0 0.0
2014-Jul-23 15:30N 34°38' E 135°25'0 0.0
2014-Jul-23 14:18N 34°38' E 135°25'0 0.0
2014-Jul-23 13:30N 34°38' E 135°25'0 0.0
2014-Jul-23 12:30N 34°38' E 135°25'0 0.0
2014-Jul-23 11:30N 34°38' E 135°25'0 0.0
2014-Jul-23 10:30N 34°38' E 135°25'0 0.0
2014-Jul-23 09:12N 34°38' E 135°25'0 0.0
2014-Jul-23 08:12N 34°38' E 135°25'0 0.0
2014-Jul-23 07:30N 34°38' E 135°25'0 0.0
2014-Jul-23 06:30N 34°38' E 135°25'0 0.0
2014-Jul-23 05:30N 34°38' E 135°25'0 0.0
2014-Jul-23 04:29N 34°38' E 135°25'0 0.0
2014-Jul-23 03:17N 34°38' E 135°25'0 0.0
2014-Jul-23 02:29N 34°38' E 135°25'0 0.0
2014-Jul-23 01:05N 34°38' E 135°25'0 0.0
2014-Jul-23 00:29N 34°38' E 135°25'0 0.0
2014-Jul-22 23:23N 34°38' E 135°25'0 0.0
2014-Jul-22 22:29N 34°38' E 135°25'2 2.2
2014-Jul-22 21:33N 34°37' E 135°23'0 0.1
2014-Jul-22 20:31N 34°37' E 135°23'0 0.0
2014-Jul-22 19:25N 34°37' E 135°23'0 0.0
2014-Jul-22 18:31N 34°37' E 135°23'0 0.0
2014-Jul-22 17:25N 34°37' E 135°23'0 0.0
2014-Jul-22 16:31N 34°37' E 135°23'0 0.0
2014-Jul-22 15:31N 34°37' E 135°23'0 0.0
2014-Jul-22 14:31N 34°37' E 135°23'8 8.2
2014-Jul-22 13:33N 34°35' E 135°13'1313.4
2014-Jul-22 12:33N 34°36' E 134°57'  
2014-Jul-16 15:30N 24°01' E 120°12'7912.8
2014-Jul-16 09:20N 22°43' E 120°08'12 1.1
2014-Jul-15 22:33N 22°35' E 120°18'2 2.1
2014-Jul-15 21:30N 22°37' E 120°17'0 0.0
2014-Jul-15 20:30N 22°37' E 120°17'0 0.0
2014-Jul-15 19:30N 22°37' E 120°17'0 0.0
2014-Jul-15 18:30N 22°37' E 120°17'0 0.0
2014-Jul-15 17:30N 22°37' E 120°17'0 0.0
2014-Jul-15 16:30N 22°37' E 120°17'0 0.0
2014-Jul-15 15:30N 22°37' E 120°17'0 0.0
2014-Jul-15 14:30N 22°37' E 120°17'0 0.0
2014-Jul-15 13:30N 22°37' E 120°17'0 0.0
2014-Jul-15 12:30N 22°37' E 120°17'0 0.0
2014-Jul-15 11:30N 22°37' E 120°17'0 0.0
2014-Jul-15 10:30N 22°37' E 120°17'0 0.0
2014-Jul-15 09:30N 22°37' E 120°17'0 0.0
2014-Jul-15 08:29N 22°37' E 120°17'0 0.0
2014-Jul-15 07:29N 22°37' E 120°17'0 0.0
2014-Jul-15 06:29N 22°37' E 120°17'0 0.0
2014-Jul-15 05:29N 22°37' E 120°17'0 0.0
2014-Jul-15 04:29N 22°37' E 120°17'0 0.0
2014-Jul-15 03:29N 22°37' E 120°17'0 0.0
2014-Jul-15 02:29N 22°37' E 120°17'0 0.0
2014-Jul-15 01:29N 22°37' E 120°17'0 0.0
2014-Jul-15 00:29N 22°37' E 120°17'0 0.0
2014-Jul-14 23:29N 22°37' E 120°17'0 0.0
2014-Jul-14 22:29N 22°37' E 120°17'0 0.0
2014-Jul-14 21:29N 22°37' E 120°17'0 0.0
2014-Jul-14 20:29N 22°37' E 120°17'0 0.0
2014-Jul-14 19:23N 22°37' E 120°17'0 0.0
2014-Jul-14 18:29N 22°37' E 120°17'0 0.0
2014-Jul-14 17:29N 22°37' E 120°17'0 0.0
2014-Jul-14 16:29N 22°37' E 120°17'0 0.0
2014-Jul-14 15:29N 22°37' E 120°17'0 0.0
2014-Jul-14 14:29N 22°37' E 120°17'0 0.0
2014-Jul-14 13:29N 22°37' E 120°17'0 0.0
2014-Jul-14 12:29N 22°37' E 120°17'0 0.0
2014-Jul-14 11:29N 22°37' E 120°17'0 0.0
2014-Jul-14 10:17N 22°37' E 120°17'0 0.0
2014-Jul-14 09:29N 22°37' E 120°17'0 0.0
2014-Jul-14 08:29N 22°37' E 120°17'0 0.0
2014-Jul-14 07:29N 22°37' E 120°17'0 0.0
2014-Jul-14 06:29N 22°37' E 120°17'3 3.2
2014-Jul-14 05:33N 22°37' E 120°14'9 9.4
2014-Jul-14 04:33N 22°44' E 120°07'  

Dump ship's entire track history